Timeline UpdatesTrip UpdatesNews PostsPvt Posts♥♥Travel TipsAdmin PostsConv PostsFollowed PostsChat RequestsBlog PostsPNR Posts

Disclaimer
Search
 
 
Sat Dec 20, 2014 10:41:38 ISTHomeTrainsΣChainsAtlasPNRForumGalleryNewsFAQTripsMembersLoginFeedback
No Recent News for this Train
Other Trains in the News **new
Latest...
⇐ Return Journey: Train# 59207

59208/Okha - Bhavnagar Passenger

Time-Table HAS CHANGED.
Sep 06 2014 (10:24PM)
Change Departure Station:
Change Arrival Station:
Post a Train Travel TipPost a Train Travel Tip **new
Post a Comment/Question/Picture/VideoPost a Comment/Question/Picture/Video
Pantry/Catering
✕ NO Pantry Car
✕ NO Catering
RSA - Rake Sharing
59267/59268 Bhavnagar-Palitana Passenger
Rake/Coach Composition
Eng.. GEN..GEN..GEN..S2..S1..GEN..GEN..GEN..SLR
Loco
RTM WDM 3A.
News    PNR    Forum    Time-Table    Availability    Fare Chart    Map    Arr/Dep History    Trips    Gallery    ΣChains    X/O    Timeline    
Travel Time: 11h 13m    40 halts    Distance: 370 km    Avg Speed: 32 km/hr
Type: Passenger
Zone: WR/Western
Departs @ 18:37 (Avg 23m late)
Platform# 1
SMTWTFS
Jamnagar/JAM 
Arrives @ 05:50 +1 night (Avg 12m late)
Platform# 1
SMTWTFS
Bhavnagar Terminus/BVC 

40 halts. 49 intermediate Stations between Jamnagar and Bhavnagar Terminus

Show ALL intermediate Stations  Show Old Time-Table

#TrkCodeStation NameX/OArrivesAvgDepartsAvgHaltPFDay#KmSpeedElevZoneAddress
1|--|OKHAOkha (3)  -14:45+111-167.0715mWROkha, Gujarat
2|--|MTHPMithapur  14:54 14:53-14:55-1 2m--1-157.5253mWRJamnagar, Gujarat
3|--|BMRNBhimranaX  15:02+215:03+61m--1-154.6376mWRBhimrana, Gujarat
4|--|VVAVarvala  15:22 15:21-15:23-1 2m--1-143.46014mWRJamnagar, Gujarat
5|--|DWKDwarka (2)X  15:28+515:30+102m21-138.41714mWRDwarka, Gujarat
6|--|GRJAGorinja  15:45 15:44+1515:46+151 2m--1-134.5635mWRKhambhalia-Dwarka (SH 6), Gujarat
7|--|OKDOkha MadhiX  16:04 16:03+1116:05+121 2m--1-116.5305mWRNH 8E, Gujarat
8|--|KRGAKuranga  16:23 16:22-16:24-1 2m--1-108.27712mWRJamnagar, Gujarat
9|--|BHTABhatiya  16:34 16:33+216:35+61 2m--1-96.65034mWRNational Highway 8E, Gujarat
10|--|BPKABhopalka  16:48 16:47+716:49+61 2m--1-86.67746mWRJamnagar, Gujarat
11|--|BHTLBhatel  17:01 17:00+1217:02+111 2m--1-72.56535mWRJamnagar, Gujarat
12|--|VQDViramdad  17:13 17:12-17:14-1 2m--1-61.74949mWRKhambhalia-Dwarka (SH 6), Gujarat
13|--|KMBLKhambhalia  17:23+1017:25+102m11-54.36749mWRKhambhalia, Gujarat
14|--|SYQSinhanX  17:33 17:32-17:34-1 2m--1-46.66250mWRSH 6, Gujarat
15|--|MDPRModpur  17:44 17:43+917:45+111 2m--1-37.25947mWRKhambhalia-Lalpur, Gujarat
16|--|KNLSKanalus JunctionX  17:57 17:56+1317:58+341 2m--1-26.54436mWRJamnagar, Gujarat
17|--|PPLIPipli  18:06 18:05+3618:07+451 2m--1-21.35730mWRJamnagar, Gujarat
18|--|LKBLLakhabawal  18:18 18:17+4618:19+451 2m--1-11.85521mWRJamnagar, Gujarat
19|--|JAMJamnagar (2)»  18:32+2218:37+235m110.04314mWRJamnagar, Gujarat
20|--|HAPAHapa (3)  18:49+3118:54+335m318.75916mWRJamnagar, Gujarat
21|--|ALBAlia Bada  19:05 19:04+5819:06+591 2m--118.66427mWRJamnagar, Gujarat
22|--|WTJJam Wanthali  19:18 19:17+1:0019:19+591 2m--130.33852mWRRanuja Village Rd, Gujarat
23|--|JALDJaliya DevaniX  19:31+5719:33+562m--137.93650mWRRanuja Village Rd, Gujarat
24|--|HMHadmatiya Junction  19:47 19:46+5219:48+531 2m--145.84870mWRHadmatiya Junction Railway Station, Gujarat
25|--|CXChanolX  19:57+5319:59+532m--152.93489mWRState Highway 25, Gujarat
26|--|PDHPadadhari  20:12 20:11+4920:13+521 2m--159.86571mWRPaddhari, Gujarat
27|--|KHDIKhanderi  20:27 20:26+5420:28+551 2m--173.730111mWRRajkot, Gujarat
28|--|RJTRajkot Junction (5)X  20:50+1521:00+1510m1184.636128mWRRajkot, Gujarat
29|--|KHCKhorana  21:19 21:18+5321:20+531 2m--195.379131mWRState Highway 113, Gujarat
30|--|SDDSindhawadarX  21:35 21:34+5321:36+541 2m--1113.840105mWRSindhavadar, Gujarat
31|--|WKRCWankaner City  21:52-21:53-1m21124.41380mWRWankaner, Gujarat
32|--|WKRWankaner Junction (4)X  22:02+5022:04 22:12+562 10m--1126.35387mWRWankaner, Gujarat
33|--|DLDaladi  22:27 22:26+5822:28+1:001 2m--1138.742115mWRDaladi, Gujarat
34|--|THANThan Junction (3)X  22:48+4422:50+462m11152.952138mWRThangadh, Gujarat
35|--|VDVagdiya  23:03 23:02+1:0423:04+1:031 2m--1163.255149mWRState Highway 113, Gujarat
36|--|RARamparda  23:12 23:11+1:1223:13+1:111 2m--1169.761141mWRSurendranagar, Gujarat
37|--|MOLMuli RoadX  23:22+1:1323:24+1:212m11178.940108mWRSurendranagar, Gujarat
38|--|DXRDigsar  23:37 23:36+1:1723:38+1:231 2m--1186.98100mWRState Highway 17, Gujarat
39!=-|SUNRSurendranagar Junction (4)X  01:15+1301:55+940m32200.64372mWRSurendra Nagar, Gujarat
40|--|SRGTSurendranagar Gate (1)  02:01 01:58-02:02 02:00-1 2m12202.84271mWRSurendranagar, Gujarat
41|--|JVNJorawarnagar Junction (1)  02:06 02:04-02:07 02:06-1 2m12205.54369mWRSurendra Nagar, Gujarat
42|--|WCWadhwan City  02:13 02:11+3302:14 02:13+401 2m--2209.18167mWRSurendranagar, Gujarat
43|--|LMLimbdi (1)  02:30 02:28+4302:31 02:30+501 2m12229.46751mWRLimbdi, Gujarat
44|--|CDAChuda  02:41 02:39+5002:42 02:41+491 2m--2239.47563mWRState Highway 38, Gujarat
45|--|RURRanpur  02:56 02:54+5002:57 02:56+491 2m--2255.77261mWRRanpur, Gujarat
46|--|KDIKundli  03:07 03:05+5003:08 03:07+511 2m--2266.55786mWRState Highway 38, Gujarat
47|--|BTDBotad Junction (5)  03:20 03:19+2603:22 03:21+322m--2277.97496mWRBotad, Gujarat
48|--|LTDLathidad  03:32 03:30+4603:33 03:32+451 2m--2289.07568mWRTajpar Rd, Gujarat
49|--|NGANingala Junction  03:41 03:38+4403:42 03:40+431 2m--2296.57557mWRState Highway 117, Gujarat
50|--|ALMRAlampur  03:49 03:46+4503:50 03:48+441 2m--2304.05059mWRState Highway 31, Gujarat
51|--|UJUjalvav  03:58 03:56+5803:59 03:58+561 2m--2310.75164mWRState Highway 31, Gujarat
52|--|DLJDhola Junction  04:11 04:10+4104:12 04:11+401m--2320.89437mWRDhola, Gujarat
53|--|SOASanosra  04:20 04:18+5804:21 04:20+561 2m--2331.96436mWRState Highway 25, Gujarat
54|--|BJUDBajud  04:26 04:24-04:27 04:26-1 2m--2336.26137mWRState Highway 31, Gujarat
55|--|SGDSongadh (1)X  04:33 04:32+5504:34+531 2m12342.33740mWRBhavnagar, Gujarat
56|--|SOJNSihor Gujarat  04:49 04:46+5504:50 04:48+541 2m--2349.75342mWRShihor, Gujarat
57|--|KDMRKodiyar Mandir  04:57 04:54+5304:58 04:56+521 2m12355.02192mWRSH 21, Gujarat
58|--|VTJVartejX  05:12 05:11+4805:13+471 2m--2360.23124mWRBhavnagar, Gujarat
59|--|BVPBhavnagar Para  05:28 05:27+2405:29+231 2m--2367.5813mWRBhavnagar, Gujarat
60|--|BVCBhavnagar Terminus (2)•  05:50+12-12370.2-11mWRBhavnagar, Gujarat
Scroll to Top
Scroll to Bottom


Go to Mobile site